createdAt,value
2023-04-18T00:01:06.011Z,78.22
2023-04-18T00:31:06.071Z,78
2023-04-18T01:01:06.041Z,77.99
2023-04-18T01:31:06.053Z,78.2
2023-04-18T02:01:06.053Z,78.33
2023-04-18T02:31:06.033Z,78.28
2023-04-18T03:01:06.068Z,78.63
2023-04-18T03:31:06.056Z,78.48
2023-04-18T04:01:06.020Z,78.42
2023-04-18T04:31:06.041Z,78.42
2023-04-18T05:01:06.051Z,78.53
2023-04-18T05:31:06.074Z,78.19
2023-04-18T06:01:06.052Z,78.42
2023-04-18T06:31:06.075Z,78.1
2023-04-18T07:01:06.090Z,76.91
2023-04-18T07:31:06.101Z,76.37
2023-04-18T08:01:06.084Z,76.3
2023-04-18T08:31:06.085Z,75.17
2023-04-18T09:01:06.127Z,74.1
2023-04-18T09:31:06.128Z,73.75
2023-04-18T10:01:06.127Z,73.12
2023-04-18T10:31:06.108Z,72.72
2023-04-18T11:01:06.116Z,72.29
2023-04-18T11:31:06.104Z,71.49
2023-04-18T12:01:06.111Z,71.13
2023-04-18T12:31:06.121Z,69.72
2023-04-18T13:01:06.121Z,69.47
2023-04-18T13:31:06.118Z,70.22
2023-04-18T14:01:06.204Z,70.71
2023-04-18T14:31:06.205Z,69.84
2023-04-18T15:01:06.139Z,69.79
2023-04-18T15:31:06.165Z,69.67
2023-04-18T16:01:06.201Z,69.15
2023-04-18T16:31:06.193Z,70.15
2023-04-18T17:01:06.175Z,69.85
2023-04-18T17:31:06.169Z,70.37
2023-04-18T18:01:06.192Z,70.8
2023-04-18T18:31:06.175Z,71.27
2023-04-18T19:01:06.176Z,71.5
2023-04-18T19:42:06.257Z,71.77
2023-04-18T20:12:06.120Z,71.88
2023-04-18T20:42:06.119Z,72.11
2023-04-18T21:12:06.129Z,72.29
2023-04-18T21:42:06.151Z,72.38
2023-04-18T22:12:06.147Z,73.16
2023-04-18T22:42:06.149Z,73.29
2023-04-18T23:12:06.173Z,73.57
2023-04-18T23:42:06.178Z,73.78
